Time;durP1;ratioP1;P1;durP2;ratioP2;P2;SDS_P1;SDS_P2;PMS_P1;PMS_P2;Temp;Humidity;BMP_temperature;BMP_pressure;BME280_temperature;BME280_humidity;BME280_pressure;Samples;Min_cycle;Max_cycle;Signal;HPM_P1;HPM_P2
2022/01/11 00:01:01;;;;;;;45.47;26.52;;;-2.20;99.90;;;;;;7356969;19;20375;-80
2022/01/11 00:03:28;;;;;;;43.83;26.45;;;-2.20;99.90;;;;;;7380777;19;20300;-82
2022/01/11 00:06:02;;;;;;;40.10;24.75;;;-2.20;99.90;;;;;;7372457;19;20692;-80
2022/01/11 00:08:31;;;;;;;35.47;22.52;;;-2.20;99.90;;;;;;7359053;19;20893;-86
2022/01/11 00:11:04;;;;;;;34.03;23.80;;;-2.20;99.90;;;;;;7377907;19;20354;-83
2022/01/11 00:13:34;;;;;;;38.35;22.65;;;-2.20;99.90;;;;;;7379878;19;20325;-91
2022/01/11 00:16:01;;;;;;;37.40;22.35;;;-2.20;99.90;;;;;;7376336;19;20381;-84
2022/01/11 00:18:28;;;;;;;29.77;21.92;;;-2.20;99.90;;;;;;7377019;19;20321;-81
2022/01/11 00:20:54;;;;;;;34.67;23.25;;;-2.20;99.90;;;;;;7382220;19;20312;-82
2022/01/11 00:25:51;;;;;;;34.78;24.25;;;-2.10;99.90;;;;;;7382114;19;20313;-81
2022/01/11 00:28:19;;;;;;;31.48;22.00;;;-2.10;99.90;;;;;;7382720;19;20870;-82
2022/01/11 00:30:57;;;;;;;29.65;21.17;;;-2.10;99.90;;;;;;7380300;19;20683;-82
2022/01/11 00:33:44;;;;;;;29.55;19.70;;;-2.10;99.90;;;;;;7383689;19;20981;-86
2022/01/11 00:36:12;;;;;;;34.15;22.80;;;-2.10;99.90;;;;;;7355559;19;20327;-86
2022/01/11 00:38:40;;;;;;;33.25;21.27;;;-2.10;99.90;;;;;;7379175;19;20348;-78
2022/01/11 00:41:08;;;;;;;27.80;19.73;;;-2.00;99.90;;;;;;7379945;19;20315;-85
2022/01/11 00:43:35;;;;;;;25.47;17.97;;;-2.00;99.90;;;;;;7386129;19;20309;-79
2022/01/11 00:46:01;;;;;;;26.83;18.13;;;-1.90;99.90;;;;;;7386241;19;20865;-78
2022/01/11 00:48:28;;;;;;;30.00;20.70;;;-1.90;99.90;;;;;;7369903;19;20319;-82
2022/01/11 00:50:55;;;;;;;27.23;18.40;;;-2.00;99.90;;;;;;7375423;19;20903;-79
2022/01/11 00:53:24;;;;;;;24.23;15.80;;;-1.90;99.90;;;;;;7372850;19;20717;-79
2022/01/11 00:55:53;;;;;;;28.07;17.60;;;-1.80;99.90;;;;;;7379879;19;20325;-82
2022/01/11 00:58:20;;;;;;;26.23;18.48;;;-1.80;99.90;;;;;;7382672;19;22185;-79
2022/01/11 01:00:47;;;;;;;28.90;19.70;;;-1.80;99.90;;;;;;7375016;19;20995;-81
2022/01/11 01:03:14;;;;;;;27.20;17.30;;;-1.80;99.90;;;;;;7385367;19;20348;-83
2022/01/11 01:05:40;;;;;;;21.38;16.10;;;-1.80;99.90;;;;;;7389354;19;20329;-79
2022/01/11 01:08:07;;;;;;;20.00;15.27;;;-1.80;99.90;;;;;;7385939;19;21376;-79
2022/01/11 01:10:38;;;;;;;24.95;17.10;;;-1.70;99.90;;;;;;7385213;19;20317;-77
2022/01/11 01:13:07;;;;;;;21.27;15.63;;;-1.70;99.90;;;;;;7385702;19;20631;-81
2022/01/11 01:15:37;;;;;;;24.33;18.17;;;-1.60;99.90;;;;;;7370860;19;20331;-85
2022/01/11 01:18:15;;;;;;;20.83;14.90;;;-1.70;99.90;;;;;;7383480;19;20861;-78
2022/01/11 01:20:43;;;;;;;26.90;17.90;;;-1.70;99.90;;;;;;7385108;19;21087;-83
2022/01/11 01:23:09;;;;;;;26.17;16.98;;;-1.60;99.90;;;;;;7383371;19;20311;-78
2022/01/11 01:25:37;;;;;;;19.58;15.15;;;-1.70;99.90;;;;;;7382364;19;20861;-82
2022/01/11 01:28:03;;;;;;;22.17;15.87;;;-1.70;99.90;;;;;;7377203;19;20368;-83
2022/01/11 01:30:31;;;;;;;19.73;14.07;;;-1.70;99.90;;;;;;7373847;19;20363;-82
2022/01/11 01:32:58;;;;;;;27.17;16.75;;;-1.60;99.90;;;;;;7380857;19;20337;-81
2022/01/11 01:35:28;;;;;;;21.77;15.30;;;-1.60;99.90;;;;;;7386754;19;20363;-80
2022/01/11 01:37:54;;;;;;;23.35;15.13;;;-1.50;99.90;;;;;;7386923;19;20852;-79
2022/01/11 01:40:21;;;;;;;23.10;15.07;;;-1.60;99.90;;;;;;7383622;19;20341;-82
2022/01/11 01:42:49;;;;;;;22.83;14.48;;;-1.60;99.90;;;;;;7367742;19;20400;-82
2022/01/11 01:45:17;;;;;;;19.83;14.13;;;-1.60;99.90;;;;;;7375138;19;20408;-80
2022/01/11 01:47:44;;;;;;;18.53;13.33;;;-1.50;99.90;;;;;;7377320;19;20842;-78
2022/01/11 01:50:11;;;;;;;24.98;16.08;;;-1.50;99.90;;;;;;7373497;19;20348;-81
2022/01/11 01:52:41;;;;;;;21.25;16.23;;;-1.40;99.90;;;;;;7375073;19;20347;-81
2022/01/11 01:55:10;;;;;;;18.55;13.25;;;-1.50;99.90;;;;;;7378806;19;20355;-81
2022/01/11 01:57:37;;;;;;;20.20;14.18;;;-1.40;99.90;;;;;;7375159;19;20885;-82
2022/01/11 02:00:11;;;;;;;24.70;15.57;;;-1.50;99.90;;;;;;7381574;19;20347;-79
2022/01/11 02:02:39;;;;;;;20.55;14.57;;;-1.50;99.90;;;;;;7378639;19;20320;-84
2022/01/11 02:05:06;;;;;;;17.85;13.30;;;-1.50;99.90;;;;;;7384764;19;20321;-81
2022/01/11 02:07:33;;;;;;;20.77;14.68;;;-1.50;99.90;;;;;;7357715;19;20340;-80
2022/01/11 02:10:03;;;;;;;19.75;14.20;;;-1.50;99.90;;;;;;7381592;19;20341;-80
2022/01/11 02:12:31;;;;;;;17.30;13.85;;;-1.60;99.90;;;;;;7279299;19;2004463;-80
2022/01/11 02:14:58;;;;;;;17.05;14.02;;;-1.60;99.90;;;;;;7379431;19;20420;-82
2022/01/11 02:17:28;;;;;;;17.75;13.70;;;-1.60;99.90;;;;;;7383982;19;20361;-82
2022/01/11 02:19:55;;;;;;;20.90;14.53;;;-1.50;99.90;;;;;;7379976;19;20312;-83
2022/01/11 02:22:24;;;;;;;19.00;13.93;;;-1.50;99.90;;;;;;7386941;19;20881;-84
2022/01/11 02:24:50;;;;;;;21.63;14.13;;;-1.50;99.90;;;;;;7383564;19;20396;-83
2022/01/11 02:27:16;;;;;;;19.33;13.50;;;-1.50;99.90;;;;;;7376484;19;20324;-81
2022/01/11 02:29:44;;;;;;;21.90;13.55;;;-1.50;99.90;;;;;;7371297;19;20290;-79
2022/01/11 02:32:11;;;;;;;15.80;11.88;;;-1.50;99.90;;;;;;7377584;19;20332;-82
2022/01/11 02:34:38;;;;;;;15.40;12.32;;;-1.50;99.90;;;;;;7384416;19;20374;-84
2022/01/11 02:37:08;;;;;;;19.92;13.80;;;-1.40;99.90;;;;;;7358498;19;20405;-84
2022/01/11 02:39:58;;;;;;;17.25;13.43;;;-1.40;99.90;;;;;;7281899;19;2004405;-84
2022/01/11 02:42:32;;;;;;;22.43;14.50;;;-1.50;99.90;;;;;;7372750;19;20363;-85
2022/01/11 02:45:00;;;;;;;19.60;13.20;;;-1.50;99.90;;;;;;7369516;19;20320;-84
2022/01/11 02:47:33;;;;;;;21.37;14.33;;;-1.50;99.90;;;;;;7385855;19;20300;-83
2022/01/11 02:50:02;;;;;;;17.10;12.55;;;-1.50;99.90;;;;;;7376771;19;20312;-85
2022/01/11 02:52:35;;;;;;;18.60;13.75;;;-1.40;99.90;;;;;;7376014;19;20371;-78
2022/01/11 02:55:07;;;;;;;17.85;11.63;;;-1.40;99.90;;;;;;7369986;19;20350;-84
2022/01/11 02:57:38;;;;;;;19.10;13.65;;;-1.50;99.90;;;;;;7350269;19;20328;-84
2022/01/11 03:00:26;;;;;;;16.02;11.82;;;-1.50;99.90;;;;;;7275598;19;2004574;-82
2022/01/11 03:02:53;;;;;;;14.38;12.25;;;-1.40;99.90;;;;;;7377487;19;20301;-87
2022/01/11 03:05:24;;;;;;;15.32;11.52;;;-1.40;99.90;;;;;;7371472;19;20343;-79
2022/01/11 03:07:52;;;;;;;22.40;14.68;;;-1.40;99.90;;;;;;7362851;19;20332;-86
2022/01/11 03:10:34;;;;;;;15.20;12.45;;;-1.40;99.90;;;;;;7372498;19;20338;-82
2022/01/11 03:13:05;;;;;;;19.00;13.30;;;-1.40;99.90;;;;;;7378775;19;20309;-83
2022/01/11 03:15:33;;;;;;;17.10;13.38;;;-1.40;99.90;;;;;;7368091;19;20425;-84
2022/01/11 03:18:04;;;;;;;19.70;15.40;;;-1.40;99.90;;;;;;7373230;19;20416;-85
2022/01/11 03:20:35;;;;;;;19.85;14.35;;;-1.50;99.90;;;;;;7370251;19;20327;-84
2022/01/11 03:23:03;;;;;;;16.80;12.27;;;-1.50;99.90;;;;;;7376504;19;20304;-84
2022/01/11 03:25:30;;;;;;;17.80;12.80;;;-1.40;99.90;;;;;;7381267;19;20289;-87
2022/01/11 03:27:57;;;;;;;20.23;14.38;;;-1.40;99.90;;;;;;7374083;19;20387;-87
2022/01/11 03:30:23;;;;;;;18.87;14.30;;;-1.40;99.90;;;;;;7377924;19;20846;-90
2022/01/11 03:32:53;;;;;;;19.90;14.10;;;-1.40;99.90;;;;;;7375939;19;20884;-80
2022/01/11 03:35:27;;;;;;;22.52;14.18;;;-1.40;99.90;;;;;;7367441;19;20320;-82
2022/01/11 03:37:53;;;;;;;19.23;12.05;;;-1.30;99.90;;;;;;7376595;19;20348;-80
2022/01/11 03:40:22;;;;;;;18.13;12.60;;;-1.40;99.90;;;;;;7377013;19;20301;-85
2022/01/11 03:42:49;;;;;;;18.75;13.32;;;-1.40;99.90;;;;;;7381706;19;20328;-82
2022/01/11 03:45:20;;;;;;;17.13;12.40;;;-1.30;99.90;;;;;;7379596;19;20335;-86
2022/01/11 03:47:55;;;;;;;16.25;12.73;;;-1.30;99.90;;;;;;7377339;19;20388;-86
2022/01/11 03:50:23;;;;;;;15.40;12.15;;;-1.40;99.90;;;;;;7374910;19;20408;-90
2022/01/11 03:53:11;;;;;;;18.08;14.45;;;-1.30;99.90;;;;;;7384880;19;20340;-87
2022/01/11 03:55:57;;;;;;;17.85;12.77;;;-1.30;99.90;;;;;;7276816;19;2004745;-86
2022/01/11 03:58:26;;;;;;;15.57;11.95;;;-1.30;99.90;;;;;;7386802;19;20328;-84
2022/01/11 04:00:54;;;;;;;15.10;10.35;;;-1.30;99.90;;;;;;7383998;19;20321;-82
2022/01/11 04:03:21;;;;;;;15.63;12.30;;;-1.30;99.90;;;;;;7388852;19;20308;-80
2022/01/11 04:05:49;;;;;;;17.42;11.98;;;-1.30;99.90;;;;;;7391335;19;20432;-84
2022/01/11 04:08:15;;;;;;;17.33;12.82;;;-1.20;99.90;;;;;;7386194;19;20345;-84
2022/01/11 04:10:42;;;;;;;18.98;13.77;;;-1.20;99.90;;;;;;7385751;19;20307;-82
2022/01/11 04:13:09;;;;;;;20.17;14.13;;;-1.20;99.90;;;;;;7383984;19;21020;-79
2022/01/11 04:15:36;;;;;;;21.15;13.90;;;-1.30;99.90;;;;;;7390908;19;21175;-82
2022/01/11 04:18:03;;;;;;;20.92;14.70;;;-1.30;99.90;;;;;;7386131;19;20316;-87
2022/01/11 04:20:31;;;;;;;17.60;13.13;;;-1.30;99.90;;;;;;7388278;19;20356;-86
2022/01/11 04:22:58;;;;;;;16.17;11.13;;;-1.40;99.90;;;;;;7388214;19;20352;-84
2022/01/11 04:25:26;;;;;;;18.77;12.27;;;-1.30;99.90;;;;;;7388919;19;20919;-82
2022/01/11 04:27:55;;;;;;;22.08;15.30;;;-1.30;99.90;;;;;;7386077;19;20313;-83
2022/01/11 04:30:21;;;;;;;18.50;12.68;;;-1.40;99.90;;;;;;7388175;19;20350;-81
2022/01/11 04:32:48;;;;;;;19.05;14.05;;;-1.40;99.90;;;;;;7390289;19;20332;-85
2022/01/11 04:35:17;;;;;;;18.95;13.25;;;-1.40;99.90;;;;;;7389689;19;20317;-80
2022/01/11 04:37:45;;;;;;;14.63;11.23;;;-1.40;99.90;;;;;;7383135;19;21007;-84
2022/01/11 04:40:13;;;;;;;24.07;14.73;;;-1.30;99.90;;;;;;7380049;19;20361;-83
2022/01/11 04:42:40;;;;;;;18.98;13.52;;;-1.30;99.90;;;;;;7384857;19;20316;-83
2022/01/11 04:45:10;;;;;;;14.05;12.02;;;-1.30;99.90;;;;;;7380645;19;20312;-83
2022/01/11 04:47:37;;;;;;;17.70;11.68;;;-1.30;99.90;;;;;;7385313;19;20331;-77
2022/01/11 04:50:04;;;;;;;21.90;14.10;;;-1.30;99.90;;;;;;7387176;19;20357;-78
2022/01/11 04:52:31;;;;;;;17.13;13.93;;;-1.30;99.90;;;;;;7383465;19;20353;-77
2022/01/11 04:54:57;;;;;;;20.17;14.15;;;-1.30;99.90;;;;;;7385260;19;20301;-83
2022/01/11 04:57:23;;;;;;;20.58;12.75;;;-1.30;99.90;;;;;;7383783;19;20328;-78
2022/01/11 04:59:49;;;;;;;15.38;12.02;;;-1.30;99.90;;;;;;7382067;19;20317;-80
2022/01/11 05:02:15;;;;;;;15.63;11.13;;;-1.20;99.90;;;;;;7385899;19;20837;-81
2022/01/11 05:04:43;;;;;;;16.00;12.40;;;-1.20;99.90;;;;;;7385260;19;20641;-79
2022/01/11 05:07:10;;;;;;;21.52;14.35;;;-1.10;99.90;;;;;;7389679;19;20313;-84
2022/01/11 05:09:37;;;;;;;20.67;15.65;;;-1.20;99.90;;;;;;7379264;19;20340;-80
2022/01/11 05:12:04;;;;;;;21.27;13.93;;;-1.30;99.90;;;;;;7386743;19;20309;-81
2022/01/11 05:14:31;;;;;;;22.20;15.90;;;-1.30;99.90;;;;;;7379534;19;20304;-83
2022/01/11 05:16:58;;;;;;;19.30;13.55;;;-1.30;99.90;;;;;;7371785;19;20309;-80
2022/01/11 05:19:26;;;;;;;21.23;14.18;;;-1.30;99.90;;;;;;7385107;19;20631;-84
2022/01/11 05:21:53;;;;;;;17.55;13.07;;;-1.30;99.90;;;;;;7386004;19;20349;-85
2022/01/11 05:24:19;;;;;;;19.67;14.57;;;-1.30;99.90;;;;;;7379826;19;20344;-81
2022/01/11 05:26:53;;;;;;;17.48;13.27;;;-1.30;99.90;;;;;;7381389;19;21193;-82
2022/01/11 05:29:20;;;;;;;19.98;12.80;;;-1.30;99.90;;;;;;7384144;19;20348;-79
2022/01/11 05:31:47;;;;;;;30.20;22.27;;;-1.30;99.90;;;;;;7383981;19;20328;-81
2022/01/11 05:34:14;;;;;;;24.07;16.07;;;-1.20;99.90;;;;;;7379201;19;20300;-80
2022/01/11 05:36:41;;;;;;;27.38;17.58;;;-1.30;99.90;;;;;;7384416;19;20335;-79
2022/01/11 05:39:09;;;;;;;117.63;65.15;;;-1.30;99.90;;;;;;7384095;19;20344;-81
2022/01/11 05:41:35;;;;;;;25.25;17.63;;;-1.30;99.90;;;;;;7375623;19;20344;-81
2022/01/11 05:44:01;;;;;;;45.80;28.57;;;-1.20;99.90;;;;;;7381233;19;20320;-80
2022/01/11 05:46:28;;;;;;;27.58;19.60;;;-1.30;99.90;;;;;;7380484;19;20347;-80
2022/01/11 05:48:54;;;;;;;36.22;23.73;;;-1.30;99.90;;;;;;7378974;19;20323;-80
2022/01/11 05:51:20;;;;;;;33.97;22.75;;;-1.30;99.90;;;;;;7370917;19;20317;-82
2022/01/11 05:53:47;;;;;;;43.40;31.58;;;-1.20;99.90;;;;;;7384764;19;20356;-86
2022/01/11 05:56:13;;;;;;;39.53;24.48;;;-1.20;99.90;;;;;;7386468;19;20765;-85
2022/01/11 05:58:39;;;;;;;28.80;20.63;;;-1.20;99.90;;;;;;7383449;19;20872;-83
2022/01/11 06:01:08;;;;;;;48.33;33.15;;;-1.30;99.90;;;;;;7382884;19;20312;-80
2022/01/11 06:03:35;;;;;;;31.02;21.48;;;-1.30;99.90;;;;;;7383440;19;20671;-89
2022/01/11 06:06:01;;;;;;;26.65;17.77;;;-1.30;99.90;;;;;;7384131;19;20328;-81
2022/01/11 06:08:32;;;;;;;24.98;17.98;;;-1.30;99.90;;;;;;7380647;19;20352;-81
2022/01/11 06:11:00;;;;;;;18.73;14.65;;;-1.30;99.90;;;;;;7380843;19;20354;-84
2022/01/11 06:13:28;;;;;;;22.02;15.25;;;-1.30;99.90;;;;;;7378320;19;20395;-82
2022/01/11 06:15:56;;;;;;;20.80;15.73;;;-1.30;99.90;;;;;;7384022;19;20656;-84
2022/01/11 06:18:23;;;;;;;21.48;14.90;;;-1.40;99.90;;;;;;7383171;19;21388;-81
2022/01/11 06:21:02;;;;;;;18.33;13.82;;;-1.50;99.90;;;;;;7380184;19;21189;-79
2022/01/11 06:23:29;;;;;;;23.45;16.48;;;-1.50;99.90;;;;;;7382932;19;20316;-81
2022/01/11 06:25:55;;;;;;;18.10;13.40;;;-1.50;99.90;;;;;;7376977;19;20328;-80
2022/01/11 06:28:22;;;;;;;20.88;14.07;;;-1.60;99.90;;;;;;7379422;19;20363;-82
2022/01/11 06:30:50;;;;;;;19.97;13.93;;;-1.70;99.90;;;;;;7382410;19;20300;-82
2022/01/11 06:33:17;;;;;;;17.48;12.73;;;-1.70;99.90;;;;;;7373424;19;20415;-79
2022/01/11 06:35:44;;;;;;;20.45;14.63;;;-1.60;99.90;;;;;;7376919;19;20317;-85
2022/01/11 06:38:11;;;;;;;24.23;16.20;;;-1.60;99.90;;;;;;7377514;19;20343;-79
2022/01/11 06:40:37;;;;;;;20.38;14.10;;;-1.50;99.90;;;;;;7377475;19;20324;-84
2022/01/11 06:43:04;;;;;;;18.40;11.77;;;-1.50;99.90;;;;;;7372476;19;20365;-84
2022/01/11 06:45:31;;;;;;;17.27;11.25;;;-1.50;99.90;;;;;;7382557;19;20324;-80
2022/01/11 06:48:00;;;;;;;14.88;10.80;;;-1.40;99.90;;;;;;7376835;19;20719;-79
2022/01/11 06:50:27;;;;;;;13.55;10.73;;;-1.50;99.90;;;;;;7384355;19;20309;-77
2022/01/11 06:52:53;;;;;;;14.20;10.10;;;-1.40;99.90;;;;;;7383999;19;20320;-79
2022/01/11 06:55:20;;;;;;;15.65;9.93;;;-1.40;99.90;;;;;;7384514;19;20340;-83
2022/01/11 06:57:47;;;;;;;13.55;10.23;;;-1.30;99.90;;;;;;7380703;19;20682;-87
2022/01/11 07:00:15;;;;;;;12.98;10.52;;;-1.40;99.90;;;;;;7381795;19;20316;-83
2022/01/11 07:02:49;;;;;;;11.80;9.85;;;-1.40;99.90;;;;;;7381466;19;20324;-79
2022/01/11 07:05:38;;;;;;;14.48;10.23;;;-1.40;99.90;;;;;;7280366;19;2005008;-83
2022/01/11 07:08:05;;;;;;;10.77;7.95;;;-1.40;99.90;;;;;;7381976;19;20312;-83
2022/01/11 07:10:32;;;;;;;14.20;9.98;;;-1.40;99.90;;;;;;7371924;19;20790;-81
2022/01/11 07:12:58;;;;;;;14.18;10.15;;;-1.40;99.90;;;;;;7381553;19;20857;-87
2022/01/11 07:15:24;;;;;;;14.90;11.63;;;-1.60;99.90;;;;;;7360694;19;20411;-82
2022/01/11 07:17:51;;;;;;;14.90;10.65;;;-1.70;99.90;;;;;;7382963;19;20334;-82
2022/01/11 07:20:18;;;;;;;12.30;9.25;;;-1.70;99.90;;;;;;7382125;19;20879;-83
2022/01/11 07:22:44;;;;;;;10.98;8.50;;;-1.70;99.90;;;;;;7384672;19;20410;-81
2022/01/11 07:25:11;;;;;;;13.02;9.40;;;-1.70;99.90;;;;;;7383699;19;20342;-80
2022/01/11 07:27:38;;;;;;;9.27;8.15;;;-1.70;99.90;;;;;;7382532;19;20320;-81
2022/01/11 07:30:05;;;;;;;13.25;8.65;;;-1.60;99.90;;;;;;7381003;19;20356;-85
2022/01/11 07:32:37;;;;;;;11.20;8.43;;;-1.50;99.90;;;;;;7364089;19;20340;-79
2022/01/11 07:35:04;;;;;;;10.55;8.27;;;-1.50;99.90;;;;;;7387482;19;20356;-78
2022/01/11 07:37:31;;;;;;;14.17;10.50;;;-1.50;99.90;;;;;;7394292;19;20313;-82
2022/01/11 07:40:00;;;;;;;13.00;10.37;;;-1.40;99.90;;;;;;7392698;19;20418;-84
2022/01/11 07:42:26;;;;;;;13.17;10.13;;;-1.40;99.90;;;;;;7394112;19;20333;-83
2022/01/11 07:45:00;;;;;;;16.35;9.32;;;-1.40;99.90;;;;;;7393908;19;20323;-80
2022/01/11 07:47:28;;;;;;;11.30;9.07;;;-1.30;99.90;;;;;;7393057;19;20650;-86
2022/01/11 07:49:55;;;;;;;12.18;9.10;;;-1.20;99.90;;;;;;7385975;19;20348;-89
2022/01/11 07:52:21;;;;;;;12.45;8.80;;;-1.10;99.90;;;;;;7392050;19;20332;-78
2022/01/11 07:54:47;;;;;;;11.30;9.17;;;-1.00;99.90;;;;;;7392275;19;20372;-77
2022/01/11 07:57:16;;;;;;;12.53;10.17;;;-1.10;99.90;;;;;;7392001;19;20336;-81
2022/01/11 07:59:42;;;;;;;15.55;10.02;;;-1.20;99.90;;;;;;7369526;19;20952;-81
2022/01/11 08:02:08;;;;;;;13.70;9.57;;;-1.20;99.90;;;;;;7392043;19;20313;-77
2022/01/11 08:04:34;;;;;;;16.08;10.15;;;-1.10;99.90;;;;;;7395435;19;20359;-82
2022/01/11 08:07:01;;;;;;;13.93;10.75;;;-0.80;99.90;;;;;;7394880;19;20368;-87
2022/01/11 08:09:36;;;;;;;14.27;10.63;;;-0.70;99.90;;;;;;7390752;19;20327;-82
2022/01/11 08:12:03;;;;;;;11.15;9.98;;;-0.80;99.90;;;;;;7394487;19;20684;-81
2022/01/11 08:14:29;;;;;;;18.98;10.20;;;-0.80;99.90;;;;;;7391737;19;20336;-81
2022/01/11 08:16:56;;;;;;;12.17;9.73;;;-0.60;99.90;;;;;;7391975;19;20304;-82
2022/01/11 08:19:25;;;;;;;11.88;9.30;;;-0.40;99.90;;;;;;7393011;19;20372;-85
2022/01/11 08:21:53;;;;;;;16.13;11.13;;;-0.30;99.90;;;;;;7386870;19;20333;-80
2022/01/11 08:24:21;;;;;;;13.35;9.43;;;-0.20;99.90;;;;;;7390050;19;20637;-79
2022/01/11 08:26:47;;;;;;;12.57;10.35;;;-0.20;99.90;;;;;;7396471;19;20304;-83
2022/01/11 08:29:14;;;;;;;11.63;9.48;;;-0.30;99.90;;;;;;7392207;19;20313;-80
2022/01/11 08:31:42;;;;;;;13.45;9.90;;;-0.30;99.90;;;;;;7388402;19;20323;-83
2022/01/11 08:34:11;;;;;;;13.68;9.73;;;-0.40;99.90;;;;;;7391571;19;20835;-81
2022/01/11 08:36:39;;;;;;;10.20;9.02;;;-0.50;99.90;;;;;;7391448;19;20348;-83
2022/01/11 08:39:05;;;;;;;14.27;8.90;;;-0.60;99.90;;;;;;7391699;19;20372;-79
2022/01/11 08:41:31;;;;;;;15.27;10.15;;;-0.60;99.90;;;;;;7380649;19;20305;-79
2022/01/11 08:43:57;;;;;;;12.57;9.38;;;-0.80;99.90;;;;;;7388606;19;20326;-82
2022/01/11 08:46:24;;;;;;;11.45;9.20;;;-0.80;99.90;;;;;;7391480;19;20391;-82
2022/01/11 08:49:02;;;;;;;13.48;9.68;;;-0.80;99.90;;;;;;7390659;19;20316;-83
2022/01/11 08:51:29;;;;;;;11.07;9.95;;;-0.70;99.90;;;;;;7393265;19;20394;-81
2022/01/11 08:53:56;;;;;;;12.93;8.68;;;-0.50;99.90;;;;;;7391289;19;20329;-84
2022/01/11 08:56:22;;;;;;;14.57;10.20;;;-0.50;99.90;;;;;;7389367;19;20751;-81
2022/01/11 08:58:48;;;;;;;14.85;9.88;;;-0.50;99.90;;;;;;7393035;19;20313;-83
2022/01/11 09:01:23;;;;;;;11.55;8.43;;;-0.30;99.90;;;;;;7388522;19;20961;-81
2022/01/11 09:03:50;;;;;;;14.45;9.50;;;-0.30;99.90;;;;;;7390171;19;20336;-86
2022/01/11 09:06:15;;;;;;;14.83;10.07;;;-0.20;99.90;;;;;;7392065;19;20323;-87
2022/01/11 09:08:45;;;;;;;9.93;8.80;;;-0.20;99.90;;;;;;7387699;19;20407;-80
2022/01/11 09:11:11;;;;;;;12.65;9.70;;;-0.10;99.90;;;;;;7390127;19;20300;-81
2022/01/11 09:13:39;;;;;;;13.13;9.90;;;0.10;99.90;;;;;;7392784;19;20354;-77
2022/01/11 09:16:08;;;;;;;11.20;9.50;;;0.20;99.90;;;;;;7389357;19;20340;-80
2022/01/11 09:18:36;;;;;;;11.70;9.07;;;0.50;99.90;;;;;;7389866;19;20340;-86
2022/01/11 09:21:03;;;;;;;13.02;9.20;;;0.60;99.90;;;;;;7390344;19;20308;-78
2022/01/11 09:23:31;;;;;;;15.50;10.77;;;0.60;99.90;;;;;;7387155;19;20388;-80
2022/01/11 09:25:57;;;;;;;16.90;10.55;;;0.60;99.90;;;;;;7387041;19;20856;-79
2022/01/11 09:28:23;;;;;;;10.93;8.73;;;0.70;99.90;;;;;;7390061;19;20372;-79
2022/01/11 09:30:49;;;;;;;13.50;10.10;;;0.90;99.90;;;;;;7389409;19;20317;-80
2022/01/11 09:33:17;;;;;;;11.88;10.00;;;1.10;99.90;;;;;;7383625;19;20384;-82
2022/01/11 09:35:48;;;;;;;12.40;10.02;;;1.30;99.90;;;;;;7381571;19;20316;-87
2022/01/11 09:38:22;;;;;;;13.75;9.82;;;1.20;99.90;;;;;;7368451;19;20317;-78
2022/01/11 09:40:53;;;;;;;12.55;9.43;;;1.30;99.90;;;;;;7285592;19;2004537;-84
2022/01/11 09:43:23;;;;;;;15.95;9.50;;;1.20;99.90;;;;;;7382173;19;20321;-83
2022/01/11 09:45:52;;;;;;;17.85;11.63;;;1.10;99.90;;;;;;7384290;19;20339;-83
2022/01/11 09:48:20;;;;;;;16.23;12.13;;;0.90;99.90;;;;;;7375121;19;20403;-85
2022/01/11 09:50:48;;;;;;;14.35;9.98;;;0.70;99.90;;;;;;7376641;19;20316;-80
2022/01/11 09:53:16;;;;;;;12.95;9.60;;;0.60;99.90;;;;;;7385494;19;20312;-84
2022/01/11 09:55:46;;;;;;;14.60;10.65;;;0.60;99.90;;;;;;7377215;19;20313;-82
2022/01/11 09:58:16;;;;;;;13.27;11.48;;;0.50;99.90;;;;;;7376513;19;20323;-80
2022/01/11 10:00:50;;;;;;;12.13;10.48;;;0.50;99.90;;;;;;7285701;19;2004346;-83
2022/01/11 10:04:07;;;;;;;17.00;12.60;;;0.50;99.90;;;;;;7273613;19;2004425;-85
2022/01/11 10:06:59;;;;;;;15.95;11.35;;;0.30;99.90;;;;;;7278962;19;2004439;-82
2022/01/11 10:09:29;;;;;;;14.30;9.40;;;0.40;99.90;;;;;;7358984;19;20360;-82
2022/01/11 10:11:58;;;;;;;16.08;11.27;;;0.80;99.90;;;;;;7361043;19;20856;-80
2022/01/11 10:14:33;;;;;;;19.13;12.13;;;0.90;99.90;;;;;;7370491;19;20753;-79
2022/01/11 10:17:19;;;;;;;14.10;10.45;;;1.00;99.90;;;;;;7270403;19;2004399;-87
2022/01/11 10:20:16;;;;;;;14.90;10.15;;;1.20;99.90;;;;;;7214629;19;2004235;-87
2022/01/11 10:23:07;;;;;;;14.30;10.55;;;1.40;99.90;;;;;;7231826;19;2004426;-88
2022/01/11 10:25:45;;;;;;;16.30;11.50;;;1.50;99.90;;;;;;7338619;19;20422;-81
2022/01/11 10:28:40;;;;;;;14.50;11.63;;;1.50;99.90;;;;;;7360626;19;20312;-87
2022/01/11 10:31:19;;;;;;;18.05;11.90;;;1.40;99.90;;;;;;7254974;19;2004480;-85
2022/01/11 10:34:21;;;;;;;14.73;10.65;;;1.40;99.90;;;;;;7319687;19;20732;-84
2022/01/11 10:36:53;;;;;;;13.03;9.50;;;1.40;99.90;;;;;;7227067;19;2004606;-83
2022/01/11 11:11:33;;;;;;;14.85;10.20;;;1.30;99.90;;;;;;7402389;19;20360;-94
2022/01/11 11:14:22;;;;;;;16.95;10.43;;;1.30;99.90;;;;;;7370287;19;20305;-86
2022/01/11 11:17:28;;;;;;;20.08;10.98;;;1.40;99.90;;;;;;7196957;19;2004261;-88
2022/01/11 11:20:11;;;;;;;18.25;13.20;;;1.50;99.90;;;;;;7362853;19;20328;-90
2022/01/11 11:23:09;;;;;;;15.20;12.75;;;1.50;99.90;;;;;;7167816;19;2004417;-85
2022/01/11 11:25:58;;;;;;;13.38;10.40;;;1.40;99.90;;;;;;7195824;19;2004125;-90
2022/01/11 11:28:57;;;;;;;14.73;10.73;;;1.80;99.90;;;;;;7198923;19;2025594;-90
2022/01/11 11:31:51;;;;;;;18.83;13.82;;;2.30;99.90;;;;;;7304301;19;20999;-85
2022/01/11 11:41:29;;;;;;;16.40;12.57;;;3.50;99.90;;;;;;7276394;19;20442;-90
2022/01/11 11:44:50;;;;;;;22.38;15.00;;;3.60;99.90;;;;;;7139472;19;2004404;-90
2022/01/11 11:48:10;;;;;;;19.70;15.27;;;3.60;99.90;;;;;;7229432;19;2004428;-92
2022/01/11 11:51:40;;;;;;;22.33;14.85;;;3.90;99.90;;;;;;7195736;19;2004443;-91
2022/01/11 11:55:15;;;;;;;19.77;12.02;;;4.00;99.90;;;;;;7062120;19;2004432;-87
2022/01/11 11:58:18;;;;;;;61.15;41.58;;;4.00;99.90;;;;;;7347204;19;20304;-89
2022/01/11 12:01:51;;;;;;;16.17;13.00;;;4.10;99.90;;;;;;7260594;19;20370;-88
2022/01/11 12:04:40;;;;;;;14.30;10.07;;;3.80;99.90;;;;;;7064739;19;2004390;-89
2022/01/11 12:07:45;;;;;;;14.85;10.02;;;3.60;99.90;;;;;;7142165;19;2004480;-91
2022/01/11 12:10:52;;;;;;;12.70;10.07;;;3.40;99.90;;;;;;7271235;19;20323;-85
2022/01/11 12:14:00;;;;;;;10.63;8.87;;;2.90;99.90;;;;;;7325348;19;20312;-90
2022/01/11 12:16:48;;;;;;;13.90;10.55;;;2.90;99.90;;;;;;7187350;19;2004448;-88
2022/01/11 12:19:51;;;;;;;19.38;17.38;;;3.30;99.90;;;;;;7294437;19;20328;-88
2022/01/11 12:22:33;;;;;;;14.77;10.40;;;3.50;99.90;;;;;;7385673;19;20368;-88
2022/01/11 12:25:03;;;;;;;17.30;15.05;;;3.50;99.90;;;;;;7350623;19;20328;-90
2022/01/11 12:28:00;;;;;;;17.63;13.60;;;3.60;99.90;;;;;;7373916;19;20987;-87
2022/01/11 12:30:29;;;;;;;20.20;13.83;;;3.50;99.90;;;;;;7279255;19;2004523;-90
2022/01/11 12:33:19;;;;;;;14.80;12.30;;;3.30;99.90;;;;;;7357512;19;20337;-87
2022/01/11 12:36:04;;;;;;;16.80;11.88;;;3.30;99.90;;;;;;7280012;19;2004406;-89
2022/01/11 12:38:37;;;;;;;18.08;12.93;;;3.40;99.90;;;;;;7260392;19;2004411;-93
2022/01/11 12:41:48;;;;;;;14.48;11.00;;;3.40;99.90;;;;;;7288344;19;20938;-89
2022/01/11 12:47:08;;;;;;;18.60;13.50;;;3.70;99.90;;;;;;7262217;19;20313;-92
2022/01/11 12:49:48;;;;;;;18.55;12.85;;;3.40;99.90;;;;;;7300460;19;20339;-83
2022/01/11 12:52:26;;;;;;;19.05;15.32;;;3.10;99.90;;;;;;7347123;19;20321;-90
2022/01/11 12:55:13;;;;;;;11.98;9.52;;;2.90;99.90;;;;;;7335552;19;20316;-90
2022/01/11 12:57:46;;;;;;;18.53;13.30;;;2.90;99.90;;;;;;7356833;19;20360;-91
2022/01/11 13:00:17;;;;;;;18.85;14.23;;;2.80;99.90;;;;;;7335486;19;20329;-92
2022/01/11 13:02:44;;;;;;;11.30;9.60;;;2.60;99.90;;;;;;7385614;19;20919;-85
2022/01/11 13:05:17;;;;;;;12.65;9.63;;;2.50;99.90;;;;;;7397453;19;20336;-84
2022/01/11 13:07:46;;;;;;;14.05;10.13;;;2.50;99.90;;;;;;7272032;19;2004431;-82
2022/01/11 13:10:19;;;;;;;12.73;9.60;;;2.40;99.90;;;;;;7376583;19;20347;-93
2022/01/11 13:12:53;;;;;;;13.18;10.40;;;2.30;99.90;;;;;;7387557;19;20684;-90
2022/01/11 13:15:32;;;;;;;13.35;10.38;;;2.40;99.90;;;;;;7381930;19;20364;-90
2022/01/11 13:18:07;;;;;;;15.05;9.45;;;2.20;99.90;;;;;;7374161;19;20340;-84
2022/01/11 13:20:38;;;;;;;11.93;9.60;;;2.10;99.90;;;;;;7380909;19;20377;-89
2022/01/11 13:23:19;;;;;;;10.60;9.02;;;2.20;99.90;;;;;;7376358;19;20334;-86
2022/01/11 13:26:10;;;;;;;14.52;10.05;;;2.60;99.90;;;;;;7373982;19;20324;-90
2022/01/11 13:28:48;;;;;;;10.63;8.98;;;2.90;99.90;;;;;;7362819;19;20337;-92
2022/01/11 13:31:30;;;;;;;11.45;9.38;;;3.30;99.90;;;;;;7355813;19;20298;-91
2022/01/11 13:34:06;;;;;;;12.73;10.15;;;3.90;99.90;;;;;;7346546;19;21293;-90
2022/01/11 13:36:48;;;;;;;9.98;8.55;;;4.40;99.90;;;;;;7260759;19;2004430;-88
2022/01/11 13:39:21;;;;;;;14.32;10.40;;;4.70;99.90;;;;;;7247847;19;2004426;-88
2022/01/11 13:41:51;;;;;;;13.40;9.60;;;4.70;99.90;;;;;;7365965;19;20320;-90